createdAt,value
2018-09-25T00:00:57.695Z,99.90
2018-09-25T00:03:37.371Z,99.90
2018-09-25T00:06:17.073Z,99.90
2018-09-25T00:08:56.658Z,99.90
2018-09-25T00:11:36.165Z,99.90
2018-09-25T00:14:15.677Z,99.90
2018-09-25T00:16:55.387Z,99.90
2018-09-25T00:19:34.961Z,99.90
2018-09-25T00:22:14.513Z,99.90
2018-09-25T00:24:54.099Z,99.90
2018-09-25T00:27:33.605Z,99.90
2018-09-25T00:30:13.209Z,99.90
2018-09-25T00:32:52.758Z,99.90
2018-09-25T00:35:32.378Z,99.90
2018-09-25T00:38:11.937Z,99.90
2018-09-25T00:40:51.466Z,99.90
2018-09-25T00:43:31.049Z,99.90
2018-09-25T00:46:10.677Z,99.90
2018-09-25T00:48:50.321Z,99.90
2018-09-25T00:51:29.866Z,99.90
2018-09-25T00:54:09.527Z,99.90
2018-09-25T00:56:49.082Z,99.90
2018-09-25T00:59:28.638Z,99.90
2018-09-25T01:02:08.337Z,99.90
2018-09-25T01:04:47.921Z,99.90
2018-09-25T01:07:27.404Z,99.90
2018-09-25T01:10:06.962Z,99.90
2018-09-25T01:12:46.722Z,99.90
2018-09-25T01:15:26.342Z,99.90
2018-09-25T01:18:06.118Z,99.90
2018-09-25T01:20:45.686Z,99.90
2018-09-25T01:23:25.266Z,99.90
2018-09-25T01:26:05.234Z,99.90
2018-09-25T01:28:44.991Z,99.90
2018-09-25T01:31:24.642Z,99.90
2018-09-25T01:34:04.307Z,99.90
2018-09-25T01:36:43.962Z,99.90
2018-09-25T01:39:23.738Z,99.90
2018-09-25T01:42:03.270Z,99.90
2018-09-25T01:44:42.977Z,99.90
2018-09-25T01:47:22.454Z,99.90
2018-09-25T01:50:02.061Z,99.90
2018-09-25T01:52:41.618Z,99.90
2018-09-25T01:55:21.174Z,99.90
2018-09-25T01:58:01.059Z,99.90
2018-09-25T02:00:40.606Z,99.90
2018-09-25T02:03:20.143Z,99.90
2018-09-25T02:05:59.779Z,99.90
2018-09-25T02:08:39.382Z,99.90
2018-09-25T02:11:18.981Z,99.90
2018-09-25T02:13:58.437Z,99.90
2018-09-25T02:16:38.102Z,99.90
2018-09-25T02:19:17.769Z,99.90
2018-09-25T02:21:57.409Z,99.90
2018-09-25T02:24:36.897Z,99.90
2018-09-25T02:27:16.421Z,99.90
2018-09-25T02:29:56.134Z,99.90
2018-09-25T02:32:35.742Z,99.90
2018-09-25T02:35:15.274Z,99.90
2018-09-25T02:37:55.030Z,99.90
2018-09-25T02:40:34.641Z,99.90
2018-09-25T02:43:14.233Z,99.90
2018-09-25T02:45:53.778Z,99.90
2018-09-25T02:48:33.430Z,99.90
2018-09-25T02:51:13.085Z,99.90
2018-09-25T02:53:52.667Z,99.90
2018-09-25T02:56:32.102Z,99.90
2018-09-25T02:59:11.598Z,99.90
2018-09-25T03:01:50.978Z,99.90
2018-09-25T03:04:30.717Z,99.90
2018-09-25T03:07:10.194Z,99.90
2018-09-25T03:09:49.721Z,99.90
2018-09-25T03:12:29.210Z,99.90
2018-09-25T03:15:08.910Z,99.90
2018-09-25T03:17:48.742Z,99.90
2018-09-25T03:20:28.302Z,99.90
2018-09-25T03:23:07.949Z,99.90
2018-09-25T03:25:47.481Z,99.90
2018-09-25T03:28:27.046Z,99.90
2018-09-25T03:31:06.726Z,99.90
2018-09-25T03:33:46.282Z,99.90
2018-09-25T03:36:25.989Z,99.90
2018-09-25T03:39:05.518Z,99.90
2018-09-25T03:41:45.154Z,99.90
2018-09-25T03:44:24.790Z,99.90
2018-09-25T03:47:04.357Z,99.90
2018-09-25T03:49:43.954Z,99.90
2018-09-25T03:52:23.557Z,99.90
2018-09-25T03:55:03.390Z,99.90
2018-09-25T03:57:42.946Z,99.90
2018-09-25T04:00:22.455Z,99.90
2018-09-25T04:03:02.006Z,99.90
2018-09-25T04:05:41.767Z,99.90
2018-09-25T04:08:21.418Z,99.90
2018-09-25T04:11:00.975Z,99.90
2018-09-25T04:13:40.463Z,99.90
2018-09-25T04:16:19.964Z,99.90
2018-09-25T04:18:59.672Z,99.90
2018-09-25T04:21:39.205Z,99.90
2018-09-25T04:24:18.932Z,99.90
2018-09-25T04:26:58.510Z,99.90
2018-09-25T04:29:38.243Z,99.90
2018-09-25T04:32:17.798Z,99.90
2018-09-25T04:34:57.329Z,99.90
2018-09-25T04:37:37.006Z,99.90
2018-09-25T04:40:16.840Z,99.90
2018-09-25T04:42:56.647Z,99.90
2018-09-25T04:45:36.458Z,99.90
2018-09-25T04:48:15.832Z,99.90
2018-09-25T04:50:55.597Z,99.90
2018-09-25T04:53:35.239Z,99.90
2018-09-25T04:56:14.990Z,99.90
2018-09-25T04:58:54.390Z,99.90
2018-09-25T05:01:33.855Z,99.90
2018-09-25T05:04:13.354Z,99.90
2018-09-25T05:06:52.867Z,99.90
2018-09-25T05:09:32.614Z,99.90
2018-09-25T05:12:12.143Z,99.90
2018-09-25T05:14:51.586Z,99.90
2018-09-25T05:17:31.041Z,99.90
2018-09-25T05:20:10.494Z,99.90
2018-09-25T05:22:50.193Z,99.90
2018-09-25T05:25:29.873Z,99.90
2018-09-25T05:28:09.564Z,99.90
2018-09-25T05:30:49.265Z,99.90
2018-09-25T05:33:28.794Z,99.90
2018-09-25T05:36:08.478Z,99.90
2018-09-25T05:38:47.982Z,99.90
2018-09-25T05:41:27.590Z,99.90
2018-09-25T05:44:07.170Z,99.90
2018-09-25T05:46:46.805Z,99.90
2018-09-25T05:49:26.234Z,99.90
2018-09-25T05:52:05.919Z,99.90
2018-09-25T05:54:46.002Z,99.90
2018-09-25T05:57:25.582Z,99.90
2018-09-25T06:00:05.358Z,99.90
2018-09-25T06:02:44.850Z,99.90
2018-09-25T06:05:24.405Z,99.90
2018-09-25T06:08:04.038Z,99.90
2018-09-25T06:10:43.798Z,99.90
2018-09-25T06:13:23.554Z,99.90
2018-09-25T06:16:03.274Z,99.90
2018-09-25T06:18:43.085Z,99.90
2018-09-25T06:21:22.749Z,99.90
2018-09-25T06:24:02.471Z,99.90
2018-09-25T06:26:42.153Z,99.90
2018-09-25T06:29:21.609Z,99.90
2018-09-25T06:32:01.362Z,99.90
2018-09-25T06:34:41.142Z,99.90
2018-09-25T06:37:20.828Z,99.90
2018-09-25T06:40:00.381Z,99.90
2018-09-25T06:42:40.038Z,99.90
2018-09-25T06:45:19.789Z,99.90
2018-09-25T06:47:59.654Z,99.90
2018-09-25T06:50:39.202Z,99.90
2018-09-25T06:53:18.913Z,99.90
2018-09-25T06:55:58.538Z,99.90
2018-09-25T06:58:38.131Z,99.90
2018-09-25T07:01:17.905Z,99.90
2018-09-25T07:03:57.510Z,99.90
2018-09-25T07:06:37.297Z,99.90
2018-09-25T07:09:16.862Z,99.90
2018-09-25T07:11:56.374Z,99.90
2018-09-25T07:14:36.103Z,99.90
2018-09-25T07:17:15.630Z,99.90
2018-09-25T07:19:55.234Z,99.90
2018-09-25T07:22:35.190Z,99.90
2018-09-25T07:25:14.917Z,99.90
2018-09-25T07:27:54.629Z,99.90
2018-09-25T07:30:34.302Z,99.90
2018-09-25T07:33:13.987Z,99.90
2018-09-25T07:35:53.669Z,99.90
2018-09-25T07:38:33.154Z,99.90
2018-09-25T07:41:12.758Z,99.90
2018-09-25T07:43:52.233Z,99.90
2018-09-25T07:46:31.818Z,99.90
2018-09-25T07:49:11.566Z,99.90
2018-09-25T07:51:51.054Z,99.90
2018-09-25T07:54:30.789Z,99.90
2018-09-25T07:57:10.242Z,99.90
2018-09-25T07:59:49.822Z,99.90
2018-09-25T08:02:29.474Z,99.90
2018-09-25T08:05:09.011Z,99.90
2018-09-25T08:07:48.536Z,99.90
2018-09-25T08:10:28.230Z,99.90
2018-09-25T08:13:08.226Z,99.90
2018-09-25T08:15:47.939Z,99.90
2018-09-25T08:18:27.485Z,99.90
2018-09-25T08:21:07.257Z,99.90
2018-09-25T08:23:46.970Z,99.90
2018-09-25T08:26:26.621Z,99.90
2018-09-25T08:29:06.630Z,99.90
2018-09-25T08:31:46.337Z,99.90
2018-09-25T08:34:25.989Z,99.90
2018-09-25T08:37:05.517Z,99.90
2018-09-25T08:39:44.902Z,99.90
2018-09-25T08:42:24.578Z,99.90
2018-09-25T08:45:04.090Z,99.90
2018-09-25T08:47:43.571Z,99.90
2018-09-25T08:50:23.250Z,99.90
2018-09-25T08:53:02.809Z,99.90
2018-09-25T08:55:42.538Z,99.40
2018-09-25T08:58:22.171Z,99.50
2018-09-25T09:01:01.884Z,99.80
2018-09-25T09:03:41.755Z,99.30
2018-09-25T09:06:21.457Z,98.40
2018-09-25T09:09:01.111Z,98.80
2018-09-25T09:11:40.924Z,98.60
2018-09-25T09:14:20.686Z,97.80
2018-09-25T09:17:01.415Z,98.80
2018-09-25T09:19:41.225Z,98.90
2018-09-25T09:22:20.996Z,99.10
2018-09-25T09:25:00.797Z,99.10
2018-09-25T09:27:40.247Z,98.20
2018-09-25T09:30:19.678Z,98.20
2018-09-25T09:32:59.260Z,98.70
2018-09-25T09:35:38.862Z,98.60
2018-09-25T09:38:18.314Z,98.40
2018-09-25T09:40:58.037Z,97.30
2018-09-25T09:43:37.806Z,96.30
2018-09-25T09:46:17.413Z,96.70
2018-09-25T09:48:57.291Z,96.90
2018-09-25T09:51:37.098Z,96.60
2018-09-25T09:54:16.582Z,96.60
2018-09-25T09:56:56.334Z,95.80
2018-09-25T09:59:36.007Z,95.80
2018-09-25T10:02:15.499Z,96.60
2018-09-25T10:04:55.158Z,95.40
2018-09-25T10:07:34.914Z,96.20
2018-09-25T10:10:14.614Z,96.80
2018-09-25T10:12:54.241Z,95.90
2018-09-25T10:15:33.921Z,97.10
2018-09-25T10:18:13.558Z,95.90
2018-09-25T10:20:53.267Z,95.60
2018-09-25T10:23:33.098Z,96.40
2018-09-25T10:26:12.550Z,96.70
2018-09-25T10:28:52.060Z,96.00
2018-09-25T10:31:31.818Z,96.10
2018-09-25T10:34:12.060Z,96.00
2018-09-25T10:36:51.626Z,96.00
2018-09-25T10:39:31.565Z,96.00
2018-09-25T10:42:11.602Z,96.50
2018-09-25T10:44:51.334Z,95.80
2018-09-25T10:47:30.862Z,95.90
2018-09-25T10:50:10.688Z,96.30
2018-09-25T10:52:50.455Z,95.80
2018-09-25T10:55:30.260Z,95.40
2018-09-25T10:58:09.990Z,95.50
2018-09-25T11:00:49.475Z,95.30
2018-09-25T11:03:29.170Z,94.70
2018-09-25T11:06:08.682Z,94.80
2018-09-25T11:08:48.237Z,95.20
2018-09-25T11:11:27.991Z,95.50
2018-09-25T11:14:07.746Z,95.50
2018-09-25T11:16:47.465Z,95.80
2018-09-25T11:19:27.005Z,96.00
2018-09-25T11:22:06.946Z,95.70
2018-09-25T11:24:46.473Z,96.30
2018-09-25T11:27:26.002Z,96.20
2018-09-25T11:30:05.686Z,96.10
2018-09-25T11:32:45.413Z,96.30
2018-09-25T11:35:25.148Z,95.10
2018-09-25T11:38:04.883Z,94.70
2018-09-25T11:40:44.587Z,94.10
2018-09-25T11:43:24.323Z,93.50
2018-09-25T11:46:04.160Z,92.50
2018-09-25T11:48:43.969Z,91.20
2018-09-25T11:51:23.622Z,90.20
2018-09-25T11:54:03.408Z,88.50
2018-09-25T11:56:42.982Z,82.40
2018-09-25T11:59:22.680Z,82.20
2018-09-25T12:02:02.369Z,84.10
2018-09-25T12:04:42.101Z,83.70
2018-09-25T12:07:21.810Z,82.40
2018-09-25T12:10:01.466Z,84.90
2018-09-25T12:12:41.175Z,82.20
2018-09-25T12:15:20.649Z,82.60
2018-09-25T12:18:00.405Z,85.40
2018-09-25T12:20:39.942Z,85.90
2018-09-25T12:23:19.587Z,88.70
2018-09-25T12:25:59.302Z,84.70
2018-09-25T12:28:38.882Z,87.50
2018-09-25T12:31:18.614Z,83.80
2018-09-25T12:33:58.246Z,84.30
2018-09-25T12:36:38.054Z,81.90
2018-09-25T12:39:17.625Z,83.00
2018-09-25T12:41:57.234Z,85.00
2018-09-25T12:44:37.150Z,83.00
2018-09-25T12:47:16.790Z,83.20
2018-09-25T12:49:56.389Z,84.50
2018-09-25T12:52:35.918Z,84.70
2018-09-25T12:55:15.350Z,84.40
2018-09-25T12:57:54.815Z,84.70
2018-09-25T13:00:34.301Z,84.20
2018-09-25T13:03:14.031Z,84.80
2018-09-25T13:05:53.502Z,86.10
2018-09-25T13:08:32.910Z,84.50
2018-09-25T13:11:12.345Z,82.20
2018-09-25T13:13:52.097Z,82.80
2018-09-25T13:16:31.725Z,84.50
2018-09-25T13:19:11.462Z,85.00
2018-09-25T13:21:51.270Z,83.20
2018-09-25T13:24:30.869Z,85.30
2018-09-25T13:27:10.611Z,85.30
2018-09-25T13:29:50.286Z,85.80
2018-09-25T13:32:29.809Z,86.40
2018-09-25T13:35:09.521Z,86.70
2018-09-25T13:37:49.083Z,82.90
2018-09-25T13:40:28.690Z,80.90
2018-09-25T13:43:08.249Z,83.00
2018-09-25T13:45:48.001Z,78.60
2018-09-25T13:48:27.658Z,81.40
2018-09-25T13:51:07.257Z,78.50
2018-09-25T13:53:47.069Z,78.80
2018-09-25T13:56:27.042Z,77.10
2018-09-25T13:59:06.654Z,78.10
2018-09-25T14:01:46.290Z,76.00
2018-09-25T14:04:25.975Z,76.80
2018-09-25T14:07:05.435Z,78.20
2018-09-25T14:09:45.137Z,79.40
2018-09-25T14:12:24.817Z,77.50
2018-09-25T14:15:04.222Z,77.60
2018-09-25T14:17:43.835Z,75.10
2018-09-25T14:20:23.453Z,76.30
2018-09-25T14:23:03.175Z,73.50
2018-09-25T14:25:42.733Z,72.70
2018-09-25T14:28:22.185Z,73.60
2018-09-25T14:31:01.667Z,73.60
2018-09-25T14:33:41.471Z,72.90
2018-09-25T14:36:21.245Z,73.30
2018-09-25T14:39:01.006Z,74.90
2018-09-25T14:41:40.691Z,73.30
2018-09-25T14:44:20.423Z,75.50
2018-09-25T14:47:00.030Z,76.20
2018-09-25T14:49:39.833Z,73.50
2018-09-25T14:52:19.433Z,72.80
2018-09-25T14:54:58.845Z,73.30
2018-09-25T14:57:38.421Z,75.20
2018-09-25T15:00:17.792Z,76.60
2018-09-25T15:02:57.342Z,77.00
2018-09-25T15:05:36.822Z,78.30
2018-09-25T15:08:16.389Z,77.60
2018-09-25T15:10:56.066Z,77.70
2018-09-25T15:13:35.582Z,75.70
2018-09-25T15:16:15.358Z,76.80
2018-09-25T15:18:54.989Z,75.00
2018-09-25T15:21:34.440Z,73.30
2018-09-25T15:24:13.994Z,74.00
2018-09-25T15:26:53.378Z,74.50
2018-09-25T15:29:32.866Z,75.80
2018-09-25T15:32:12.380Z,74.50
2018-09-25T15:34:52.098Z,75.00
2018-09-25T15:37:31.701Z,77.40
2018-09-25T15:40:11.469Z,76.70
2018-09-25T15:42:51.314Z,77.20
2018-09-25T15:45:30.949Z,79.40
2018-09-25T15:48:10.508Z,79.10
2018-09-25T15:50:50.110Z,78.60
2018-09-25T15:53:29.686Z,80.50
2018-09-25T15:56:09.216Z,80.70
2018-09-25T15:58:48.760Z,81.10
2018-09-25T16:01:28.287Z,84.10
2018-09-25T16:04:07.966Z,84.40
2018-09-25T16:06:47.451Z,85.10
2018-09-25T16:09:27.180Z,88.10
2018-09-25T16:12:06.813Z,89.50
2018-09-25T16:14:46.283Z,90.20
2018-09-25T16:17:25.993Z,88.10
2018-09-25T16:20:05.746Z,87.40
2018-09-25T16:22:45.199Z,87.20
2018-09-25T16:25:25.004Z,87.90
2018-09-25T16:28:04.985Z,89.00
2018-09-25T16:30:44.538Z,90.60
2018-09-25T16:33:24.117Z,90.20
2018-09-25T16:36:03.579Z,91.20
2018-09-25T16:38:43.333Z,91.60
2018-09-25T16:41:23.043Z,91.90
2018-09-25T16:44:02.819Z,91.60
2018-09-25T16:46:42.321Z,92.10
2018-09-25T16:49:22.015Z,92.80
2018-09-25T16:52:01.591Z,92.40
2018-09-25T16:54:41.126Z,93.40
2018-09-25T16:57:20.506Z,93.60
2018-09-25T17:00:00.039Z,94.50
2018-09-25T17:02:39.584Z,94.70
2018-09-25T17:05:19.498Z,94.30
2018-09-25T17:08:06.065Z,93.30
2018-09-25T17:10:45.860Z,94.40
2018-09-25T17:13:25.402Z,94.30
2018-09-25T17:16:05.738Z,95.20
2018-09-25T17:18:46.032Z,95.50
2018-09-25T17:21:25.851Z,95.70
2018-09-25T17:24:05.546Z,95.40
2018-09-25T17:26:46.668Z,94.60
2018-09-25T17:29:26.483Z,95.30
2018-09-25T17:32:05.947Z,96.10
2018-09-25T17:34:45.614Z,96.00
2018-09-25T17:37:25.358Z,97.00
2018-09-25T17:40:04.886Z,97.00
2018-09-25T17:42:44.647Z,97.40
2018-09-25T17:45:24.368Z,97.50
2018-09-25T17:48:04.178Z,97.40
2018-09-25T17:50:43.806Z,97.60
2018-09-25T17:53:23.642Z,98.00
2018-09-25T17:56:03.194Z,98.00
2018-09-25T17:58:42.826Z,97.60
2018-09-25T18:01:22.358Z,98.50
2018-09-25T18:04:01.988Z,98.50
2018-09-25T18:06:41.718Z,98.40
2018-09-25T18:09:21.531Z,98.60
2018-09-25T18:12:02.394Z,98.70
2018-09-25T18:14:43.839Z,99.60
2018-09-25T18:17:23.446Z,98.80
2018-09-25T18:20:03.198Z,98.80
2018-09-25T18:22:42.853Z,99.10
2018-09-25T18:25:22.607Z,99.40
2018-09-25T18:28:02.334Z,99.60
2018-09-25T18:30:41.690Z,99.40
2018-09-25T18:33:21.223Z,99.40
2018-09-25T18:36:00.906Z,99.40
2018-09-25T18:38:40.531Z,99.70
2018-09-25T18:41:20.063Z,99.90
2018-09-25T18:44:00.014Z,99.80
2018-09-25T18:46:39.498Z,99.90
2018-09-25T18:49:19.001Z,99.90
2018-09-25T18:51:58.758Z,99.90
2018-09-25T18:54:38.606Z,99.90
2018-09-25T18:57:18.422Z,99.90
2018-09-25T18:59:58.001Z,99.80
2018-09-25T19:02:37.413Z,99.80
2018-09-25T19:05:17.011Z,99.90
2018-09-25T19:07:56.702Z,99.90
2018-09-25T19:10:36.259Z,99.90
2018-09-25T19:13:16.136Z,99.90
2018-09-25T19:15:55.692Z,99.90
2018-09-25T19:18:35.472Z,99.80
2018-09-25T19:21:15.222Z,99.90
2018-09-25T19:23:54.829Z,99.90
2018-09-25T19:26:34.462Z,99.90
2018-09-25T19:29:13.869Z,99.90
2018-09-25T19:31:53.581Z,99.90
2018-09-25T19:34:33.386Z,99.90
2018-09-25T19:37:12.894Z,99.90
2018-09-25T19:39:52.406Z,99.90
2018-09-25T19:42:31.911Z,99.90
2018-09-25T19:45:11.419Z,99.90
2018-09-25T19:47:51.222Z,99.90
2018-09-25T19:50:30.885Z,99.90
2018-09-25T19:53:10.558Z,99.90
2018-09-25T19:55:50.395Z,99.90
2018-09-25T19:58:30.061Z,99.90
2018-09-25T20:01:09.602Z,99.90
2018-09-25T20:03:48.983Z,99.90
2018-09-25T20:06:28.825Z,99.90
2018-09-25T20:09:08.150Z,99.90
2018-09-25T20:11:48.069Z,99.90
2018-09-25T20:14:27.462Z,99.90
2018-09-25T20:17:07.148Z,99.90
2018-09-25T20:19:46.977Z,99.90
2018-09-25T20:22:26.662Z,99.90
2018-09-25T20:25:06.085Z,99.90
2018-09-25T20:27:45.589Z,99.90
2018-09-25T20:30:25.341Z,99.90
2018-09-25T20:33:05.194Z,99.90
2018-09-25T20:35:44.606Z,99.90
2018-09-25T20:38:24.152Z,99.90
2018-09-25T20:41:03.780Z,99.90
2018-09-25T20:43:43.638Z,99.90
2018-09-25T20:46:23.568Z,99.90
2018-09-25T20:49:03.254Z,99.90
2018-09-25T20:51:42.938Z,99.90
2018-09-25T20:54:22.564Z,99.90
2018-09-25T20:57:02.061Z,99.90
2018-09-25T20:59:41.803Z,99.90
2018-09-25T21:02:21.630Z,99.90
2018-09-25T21:05:01.415Z,99.90
2018-09-25T21:07:41.146Z,99.90
2018-09-25T21:10:20.886Z,99.90
2018-09-25T21:13:00.250Z,99.90
2018-09-25T21:15:39.850Z,99.90
2018-09-25T21:18:19.513Z,99.90
2018-09-25T21:20:59.094Z,99.90
2018-09-25T21:23:38.750Z,99.90
2018-09-25T21:26:18.162Z,99.90
2018-09-25T21:28:57.568Z,99.90
2018-09-25T21:31:37.135Z,99.90
2018-09-25T21:34:16.777Z,99.90
2018-09-25T21:36:56.458Z,99.90
2018-09-25T21:39:35.982Z,99.90
2018-09-25T21:42:15.594Z,99.90
2018-09-25T21:44:55.410Z,99.90
2018-09-25T21:47:35.241Z,99.90
2018-09-25T21:50:15.025Z,99.90
2018-09-25T21:52:54.855Z,99.90
2018-09-25T21:55:34.325Z,99.90
2018-09-25T21:58:13.989Z,99.90
2018-09-25T22:00:53.705Z,99.90
2018-09-25T22:03:33.140Z,99.90
2018-09-25T22:06:12.988Z,99.90
2018-09-25T22:08:52.617Z,99.90
2018-09-25T22:11:32.186Z,99.90
2018-09-25T22:14:11.761Z,99.90
2018-09-25T22:16:51.638Z,99.90
2018-09-25T22:19:31.061Z,99.90
2018-09-25T22:22:10.447Z,99.90
2018-09-25T22:24:50.273Z,99.90
2018-09-25T22:27:29.886Z,99.90
2018-09-25T22:30:09.473Z,99.90
2018-09-25T22:32:48.901Z,99.90
2018-09-25T22:35:28.477Z,99.90
2018-09-25T22:38:08.114Z,99.90
2018-09-25T22:40:47.695Z,99.90
2018-09-25T22:43:27.500Z,99.90
2018-09-25T22:46:06.926Z,99.90
2018-09-25T22:48:46.686Z,99.90
2018-09-25T22:51:26.537Z,99.90
2018-09-25T22:54:06.106Z,99.90
2018-09-25T22:56:45.553Z,99.90
2018-09-25T22:59:25.262Z,99.90
2018-09-25T23:02:04.825Z,99.90
2018-09-25T23:04:44.361Z,99.90
2018-09-25T23:07:23.889Z,99.90
2018-09-25T23:10:03.719Z,99.90
2018-09-25T23:12:43.374Z,99.90
2018-09-25T23:15:23.006Z,99.90
2018-09-25T23:18:02.609Z,99.90
2018-09-25T23:20:42.061Z,99.90
2018-09-25T23:23:21.571Z,99.90
2018-09-25T23:26:01.177Z,99.90
2018-09-25T23:28:40.753Z,99.90
2018-09-25T23:31:20.447Z,99.90
2018-09-25T23:34:00.401Z,99.90
2018-09-25T23:36:40.100Z,99.90
2018-09-25T23:39:19.561Z,99.90
2018-09-25T23:42:03.164Z,99.90
2018-09-25T23:44:43.538Z,99.90
2018-09-25T23:47:22.146Z,99.90
2018-09-25T23:50:02.594Z,99.90
2018-09-25T23:53:15.162Z,99.90
2018-09-25T23:55:56.602Z,99.90
2018-09-25T23:58:36.342Z,99.90
